sensor_id;sensor_type;location;lat;lon;timestamp;temperature;humidity
69543;SHT31;56762;49.494;11.768;2023-02-01T00:00:05;3.92;88.46
69543;SHT31;56762;49.494;11.768;2023-02-01T00:02:33;3.90;88.55
69543;SHT31;56762;49.494;11.768;2023-02-01T00:05:05;3.94;88.28
69543;SHT31;56762;49.494;11.768;2023-02-01T00:07:32;3.87;88.62
69543;SHT31;56762;49.494;11.768;2023-02-01T00:10:00;3.92;88.35
69543;SHT31;56762;49.494;11.768;2023-02-01T00:12:30;3.92;88.22
69543;SHT31;56762;49.494;11.768;2023-02-01T00:14:57;3.92;88.18
69543;SHT31;56762;49.494;11.768;2023-02-01T00:17:25;3.89;88.39
69543;SHT31;56762;49.494;11.768;2023-02-01T00:19:53;3.86;88.27
69543;SHT31;56762;49.494;11.768;2023-02-01T00:22:22;3.83;88.44
69543;SHT31;56762;49.494;11.768;2023-02-01T00:24:49;3.87;88.30
69543;SHT31;56762;49.494;11.768;2023-02-01T00:27:17;3.82;88.69
69543;SHT31;56762;49.494;11.768;2023-02-01T00:29:47;3.86;88.43
69543;SHT31;56762;49.494;11.768;2023-02-01T00:32:15;3.86;89.00
69543;SHT31;56762;49.494;11.768;2023-02-01T00:34:43;3.90;88.20
69543;SHT31;56762;49.494;11.768;2023-02-01T00:37:11;3.89;88.31
69543;SHT31;56762;49.494;11.768;2023-02-01T00:39:40;3.90;88.39
69543;SHT31;56762;49.494;11.768;2023-02-01T00:42:07;3.86;88.48
69543;SHT31;56762;49.494;11.768;2023-02-01T00:44:36;3.83;88.56
69543;SHT31;56762;49.494;11.768;2023-02-01T00:47:03;3.85;88.41
69543;SHT31;56762;49.494;11.768;2023-02-01T00:49:31;3.89;88.27
69543;SHT31;56762;49.494;11.768;2023-02-01T00:51:59;3.86;88.10
69543;SHT31;56762;49.494;11.768;2023-02-01T00:54:26;3.86;88.25
69543;SHT31;56762;49.494;11.768;2023-02-01T00:56:56;3.85;88.34
69543;SHT31;56762;49.494;11.768;2023-02-01T00:59:23;3.85;88.52
69543;SHT31;56762;49.494;11.768;2023-02-01T01:01:51;3.87;88.70
69543;SHT31;56762;49.494;11.768;2023-02-01T01:04:19;3.78;88.99
69543;SHT31;56762;49.494;11.768;2023-02-01T01:06:46;3.79;89.12
69543;SHT31;56762;49.494;11.768;2023-02-01T01:09:14;3.73;89.47
69543;SHT31;56762;49.494;11.768;2023-02-01T01:11:42;3.73;89.84
69543;SHT31;56762;49.494;11.768;2023-02-01T01:14:11;3.73;89.58
69543;SHT31;56762;49.494;11.768;2023-02-01T01:16:39;3.68;89.81
69543;SHT31;56762;49.494;11.768;2023-02-01T01:19:07;3.66;89.83
69543;SHT31;56762;49.494;11.768;2023-02-01T01:21:34;3.69;89.89
69543;SHT31;56762;49.494;11.768;2023-02-01T01:24:03;3.68;89.88
69543;SHT31;56762;49.494;11.768;2023-02-01T01:26:30;3.70;90.01
69543;SHT31;56762;49.494;11.768;2023-02-01T01:28:59;3.72;90.04
69543;SHT31;56762;49.494;11.768;2023-02-01T01:31:28;3.82;89.49
69543;SHT31;56762;49.494;11.768;2023-02-01T01:33:58;3.85;89.59
69543;SHT31;56762;49.494;11.768;2023-02-01T01:36:27;3.86;89.62
69543;SHT31;56762;49.494;11.768;2023-02-01T01:38:55;3.85;89.66
69543;SHT31;56762;49.494;11.768;2023-02-01T01:41:25;3.92;89.27
69543;SHT31;56762;49.494;11.768;2023-02-01T01:43:55;3.89;89.75
69543;SHT31;56762;49.494;11.768;2023-02-01T01:46:25;3.89;89.40
69543;SHT31;56762;49.494;11.768;2023-02-01T01:48:59;3.93;89.15
69543;SHT31;56762;49.494;11.768;2023-02-01T01:51:30;3.89;89.17
69543;SHT31;56762;49.494;11.768;2023-02-01T01:54:02;3.83;89.23
69543;SHT31;56762;49.494;11.768;2023-02-01T01:56:32;3.89;89.34
69543;SHT31;56762;49.494;11.768;2023-02-01T01:59:01;3.96;89.00
69543;SHT31;56762;49.494;11.768;2023-02-01T02:01:29;3.96;89.16
69543;SHT31;56762;49.494;11.768;2023-02-01T02:03:59;3.94;88.87
69543;SHT31;56762;49.494;11.768;2023-02-01T02:06:34;3.93;88.95
69543;SHT31;56762;49.494;11.768;2023-02-01T02:09:04;3.94;89.05
69543;SHT31;56762;49.494;11.768;2023-02-01T02:11:32;3.90;88.48
69543;SHT31;56762;49.494;11.768;2023-02-01T02:14:01;3.97;89.17
69543;SHT31;56762;49.494;11.768;2023-02-01T02:16:45;3.87;89.92
69543;SHT31;56762;49.494;11.768;2023-02-01T02:19:43;3.85;89.89
69543;SHT31;56762;49.494;11.768;2023-02-01T02:22:35;3.87;89.35
69543;SHT31;56762;49.494;11.768;2023-02-01T02:25:57;3.82;89.30
69543;SHT31;56762;49.494;11.768;2023-02-01T02:28:56;3.87;89.25
69543;SHT31;56762;49.494;11.768;2023-02-01T02:31:43;3.80;89.56
69543;SHT31;56762;49.494;11.768;2023-02-01T02:34:18;3.85;89.76
69543;SHT31;56762;49.494;11.768;2023-02-01T02:37:00;3.83;89.31
69543;SHT31;56762;49.494;11.768;2023-02-01T02:43:06;3.86;89.39
69543;SHT31;56762;49.494;11.768;2023-02-01T02:46:01;3.85;89.46
69543;SHT31;56762;49.494;11.768;2023-02-01T02:49:01;3.90;89.01
69543;SHT31;56762;49.494;11.768;2023-02-01T02:51:37;3.86;89.12
69543;SHT31;56762;49.494;11.768;2023-02-01T02:54:25;3.87;88.95
69543;SHT31;56762;49.494;11.768;2023-02-01T02:57:18;3.85;89.24
69543;SHT31;56762;49.494;11.768;2023-02-01T03:00:07;3.83;89.36
69543;SHT31;56762;49.494;11.768;2023-02-01T03:02:53;3.80;90.01
69543;SHT31;56762;49.494;11.768;2023-02-01T03:05:41;3.87;89.08
69543;SHT31;56762;49.494;11.768;2023-02-01T03:08:13;3.87;88.94
69543;SHT31;56762;49.494;11.768;2023-02-01T03:10:49;3.93;88.17
69543;SHT31;56762;49.494;11.768;2023-02-01T03:13:31;3.87;88.67
69543;SHT31;56762;49.494;11.768;2023-02-01T03:16:03;3.94;88.28
69543;SHT31;56762;49.494;11.768;2023-02-01T03:18:36;3.89;88.40
69543;SHT31;56762;49.494;11.768;2023-02-01T03:21:12;3.90;88.59
69543;SHT31;56762;49.494;11.768;2023-02-01T03:23:43;3.90;88.94
69543;SHT31;56762;49.494;11.768;2023-02-01T03:26:14;3.90;88.66
69543;SHT31;56762;49.494;11.768;2023-02-01T03:28:45;3.94;88.80
69543;SHT31;56762;49.494;11.768;2023-02-01T03:31:15;3.96;88.23
69543;SHT31;56762;49.494;11.768;2023-02-01T03:33:43;4.00;87.78
69543;SHT31;56762;49.494;11.768;2023-02-01T03:36:24;3.97;88.16
69543;SHT31;56762;49.494;11.768;2023-02-01T03:38:58;4.00;88.14
69543;SHT31;56762;49.494;11.768;2023-02-01T03:41:33;4.00;88.47
69543;SHT31;56762;49.494;11.768;2023-02-01T03:44:08;4.01;88.30
69543;SHT31;56762;49.494;11.768;2023-02-01T03:46:42;4.07;87.95
69543;SHT31;56762;49.494;11.768;2023-02-01T03:49:18;4.10;87.85
69543;SHT31;56762;49.494;11.768;2023-02-01T03:51:48;4.06;88.83
69543;SHT31;56762;49.494;11.768;2023-02-01T03:54:20;3.97;89.09
69543;SHT31;56762;49.494;11.768;2023-02-01T03:56:48;3.99;88.90
69543;SHT31;56762;49.494;11.768;2023-02-01T03:59:16;3.99;88.57
69543;SHT31;56762;49.494;11.768;2023-02-01T04:01:44;3.97;88.86
69543;SHT31;56762;49.494;11.768;2023-02-01T04:04:12;3.97;88.48
69543;SHT31;56762;49.494;11.768;2023-02-01T04:06:46;3.89;89.00
69543;SHT31;56762;49.494;11.768;2023-02-01T04:09:14;3.93;89.12
69543;SHT31;56762;49.494;11.768;2023-02-01T04:11:43;3.90;88.51
69543;SHT31;56762;49.494;11.768;2023-02-01T04:14:11;3.90;87.72
69543;SHT31;56762;49.494;11.768;2023-02-01T04:16:39;3.93;87.16
69543;SHT31;56762;49.494;11.768;2023-02-01T04:19:06;3.96;87.44
69543;SHT31;56762;49.494;11.768;2023-02-01T04:21:34;3.96;87.95
69543;SHT31;56762;49.494;11.768;2023-02-01T04:24:02;3.96;87.83
69543;SHT31;56762;49.494;11.768;2023-02-01T04:26:30;3.94;88.29
69543;SHT31;56762;49.494;11.768;2023-02-01T04:29:00;3.92;88.16
69543;SHT31;56762;49.494;11.768;2023-02-01T04:31:27;3.97;88.36
69543;SHT31;56762;49.494;11.768;2023-02-01T04:33:55;4.01;87.90
69543;SHT31;56762;49.494;11.768;2023-02-01T04:36:24;4.04;87.87
69543;SHT31;56762;49.494;11.768;2023-02-01T04:38:52;4.01;88.11
69543;SHT31;56762;49.494;11.768;2023-02-01T04:41:20;3.99;88.13
69543;SHT31;56762;49.494;11.768;2023-02-01T04:43:49;3.96;88.43
69543;SHT31;56762;49.494;11.768;2023-02-01T04:46:19;4.01;87.99
69543;SHT31;56762;49.494;11.768;2023-02-01T04:48:46;4.01;88.11
69543;SHT31;56762;49.494;11.768;2023-02-01T04:51:14;3.96;88.17
69543;SHT31;56762;49.494;11.768;2023-02-01T04:53:42;3.97;88.38
69543;SHT31;56762;49.494;11.768;2023-02-01T04:56:10;4.00;88.61
69543;SHT31;56762;49.494;11.768;2023-02-01T04:58:37;3.96;89.22
69543;SHT31;56762;49.494;11.768;2023-02-01T05:01:06;3.93;89.14
69543;SHT31;56762;49.494;11.768;2023-02-01T05:03:36;3.94;89.13
69543;SHT31;56762;49.494;11.768;2023-02-01T05:06:04;3.97;89.34
69543;SHT31;56762;49.494;11.768;2023-02-01T05:08:32;3.92;89.53
69543;SHT31;56762;49.494;11.768;2023-02-01T05:11:01;3.92;89.60
69543;SHT31;56762;49.494;11.768;2023-02-01T05:13:29;3.87;89.89
69543;SHT31;56762;49.494;11.768;2023-02-01T05:16:15;3.83;89.79
69543;SHT31;56762;49.494;11.768;2023-02-01T05:18:44;3.75;90.24
69543;SHT31;56762;49.494;11.768;2023-02-01T05:21:12;3.79;90.07
69543;SHT31;56762;49.494;11.768;2023-02-01T05:23:40;3.75;89.88
69543;SHT31;56762;49.494;11.768;2023-02-01T05:26:22;3.76;89.71
69543;SHT31;56762;49.494;11.768;2023-02-01T05:28:51;3.78;89.52
69543;SHT31;56762;49.494;11.768;2023-02-01T05:31:18;3.73;90.00
69543;SHT31;56762;49.494;11.768;2023-02-01T05:33:48;3.72;89.60
69543;SHT31;56762;49.494;11.768;2023-02-01T05:36:16;3.73;89.42
69543;SHT31;56762;49.494;11.768;2023-02-01T05:38:43;3.69;90.34
69543;SHT31;56762;49.494;11.768;2023-02-01T05:41:11;3.68;89.64
69543;SHT31;56762;49.494;11.768;2023-02-01T05:43:39;3.69;89.83
69543;SHT31;56762;49.494;11.768;2023-02-01T05:46:07;3.66;89.74
69543;SHT31;56762;49.494;11.768;2023-02-01T05:48:37;3.63;89.30
69543;SHT31;56762;49.494;11.768;2023-02-01T05:51:06;3.68;89.48
69543;SHT31;56762;49.494;11.768;2023-02-01T05:53:34;3.58;89.69
69543;SHT31;56762;49.494;11.768;2023-02-01T05:56:03;3.63;89.38
69543;SHT31;56762;49.494;11.768;2023-02-01T05:58:31;3.56;90.09
69543;SHT31;56762;49.494;11.768;2023-02-01T06:00:59;3.59;89.99
69543;SHT31;56762;49.494;11.768;2023-02-01T06:03:27;3.59;90.11
69543;SHT31;56762;49.494;11.768;2023-02-01T06:05:55;3.54;90.22
69543;SHT31;56762;49.494;11.768;2023-02-01T06:08:24;3.48;90.74
69543;SHT31;56762;49.494;11.768;2023-02-01T06:10:57;3.52;90.52
69543;SHT31;56762;49.494;11.768;2023-02-01T06:13:25;3.52;90.71
69543;SHT31;56762;49.494;11.768;2023-02-01T06:15:53;3.58;90.12
69543;SHT31;56762;49.494;11.768;2023-02-01T06:18:22;3.56;90.72
69543;SHT31;56762;49.494;11.768;2023-02-01T06:20:54;3.56;90.33
69543;SHT31;56762;49.494;11.768;2023-02-01T06:23:23;3.59;89.62
69543;SHT31;56762;49.494;11.768;2023-02-01T06:25:52;3.72;89.28
69543;SHT31;56762;49.494;11.768;2023-02-01T06:28:19;3.68;89.35
69543;SHT31;56762;49.494;11.768;2023-02-01T06:30:50;3.80;88.61
69543;SHT31;56762;49.494;11.768;2023-02-01T06:33:17;3.72;88.84
69543;SHT31;56762;49.494;11.768;2023-02-01T06:39:06;3.61;89.27
69543;SHT31;56762;49.494;11.768;2023-02-01T06:41:34;3.56;88.99
69543;SHT31;56762;49.494;11.768;2023-02-01T06:44:05;3.55;89.34
69543;SHT31;56762;49.494;11.768;2023-02-01T06:46:33;3.49;89.46
69543;SHT31;56762;49.494;11.768;2023-02-01T06:49:01;3.46;89.79
69543;SHT31;56762;49.494;11.768;2023-02-01T06:51:30;3.43;89.46
69543;SHT31;56762;49.494;11.768;2023-02-01T06:54:00;3.46;89.54
69543;SHT31;56762;49.494;11.768;2023-02-01T06:56:29;3.39;89.58
69543;SHT31;56762;49.494;11.768;2023-02-01T06:58:58;3.42;89.66
69543;SHT31;56762;49.494;11.768;2023-02-01T07:01:28;3.45;89.47
69543;SHT31;56762;49.494;11.768;2023-02-01T07:03:56;3.43;89.45
69543;SHT31;56762;49.494;11.768;2023-02-01T07:06:26;3.45;89.47
69543;SHT31;56762;49.494;11.768;2023-02-01T07:08:56;3.42;89.97
69543;SHT31;56762;49.494;11.768;2023-02-01T07:11:24;3.45;89.63
69543;SHT31;56762;49.494;11.768;2023-02-01T07:13:55;3.52;90.01
69543;SHT31;56762;49.494;11.768;2023-02-01T07:16:22;3.52;89.64
69543;SHT31;56762;49.494;11.768;2023-02-01T07:18:51;3.54;89.76
69543;SHT31;56762;49.494;11.768;2023-02-01T07:21:19;3.55;89.51
69543;SHT31;56762;49.494;11.768;2023-02-01T07:23:47;3.56;89.52
69543;SHT31;56762;49.494;11.768;2023-02-01T07:26:15;3.61;89.50
69543;SHT31;56762;49.494;11.768;2023-02-01T07:28:43;3.61;89.66
69543;SHT31;56762;49.494;11.768;2023-02-01T07:31:16;3.68;89.24
69543;SHT31;56762;49.494;11.768;2023-02-01T07:33:47;3.70;89.27
69543;SHT31;56762;49.494;11.768;2023-02-01T07:36:18;3.65;89.33
69543;SHT31;56762;49.494;11.768;2023-02-01T07:38:46;3.72;88.98
69543;SHT31;56762;49.494;11.768;2023-02-01T07:41:14;3.82;88.59
69543;SHT31;56762;49.494;11.768;2023-02-01T07:43:43;3.82;88.35
69543;SHT31;56762;49.494;11.768;2023-02-01T07:46:11;3.86;88.37
69543;SHT31;56762;49.494;11.768;2023-02-01T07:48:42;3.87;87.98
69543;SHT31;56762;49.494;11.768;2023-02-01T07:51:11;3.87;88.32
69543;SHT31;56762;49.494;11.768;2023-02-01T07:53:41;3.93;88.23
69543;SHT31;56762;49.494;11.768;2023-02-01T07:56:11;3.92;88.11
69543;SHT31;56762;49.494;11.768;2023-02-01T07:58:39;4.00;87.73
69543;SHT31;56762;49.494;11.768;2023-02-01T08:01:13;4.06;87.85
69543;SHT31;56762;49.494;11.768;2023-02-01T08:03:50;4.06;87.85
69543;SHT31;56762;49.494;11.768;2023-02-01T08:06:18;4.09;87.93
69543;SHT31;56762;49.494;11.768;2023-02-01T08:08:46;4.17;87.51
69543;SHT31;56762;49.494;11.768;2023-02-01T08:11:15;4.21;86.96
69543;SHT31;56762;49.494;11.768;2023-02-01T08:13:43;4.18;87.21
69543;SHT31;56762;49.494;11.768;2023-02-01T08:16:12;4.27;86.48
69543;SHT31;56762;49.494;11.768;2023-02-01T08:18:40;4.25;86.68
69543;SHT31;56762;49.494;11.768;2023-02-01T08:21:11;4.36;86.13
69543;SHT31;56762;49.494;11.768;2023-02-01T08:23:40;4.36;86.04
69543;SHT31;56762;49.494;11.768;2023-02-01T08:26:10;4.41;86.00
69543;SHT31;56762;49.494;11.768;2023-02-01T08:28:39;4.38;85.89
69543;SHT31;56762;49.494;11.768;2023-02-01T08:31:07;4.41;85.73
69543;SHT31;56762;49.494;11.768;2023-02-01T08:33:36;4.38;85.46
69543;SHT31;56762;49.494;11.768;2023-02-01T08:36:06;4.37;85.39
69543;SHT31;56762;49.494;11.768;2023-02-01T08:38:36;4.41;85.25
69543;SHT31;56762;49.494;11.768;2023-02-01T08:41:05;4.38;84.43
69543;SHT31;56762;49.494;11.768;2023-02-01T08:43:33;4.40;84.31
69543;SHT31;56762;49.494;11.768;2023-02-01T08:46:02;4.34;84.58
69543;SHT31;56762;49.494;11.768;2023-02-01T08:48:30;4.42;84.35
69543;SHT31;56762;49.494;11.768;2023-02-01T08:51:01;4.41;84.47
69543;SHT31;56762;49.494;11.768;2023-02-01T08:57:11;4.47;83.71
69543;SHT31;56762;49.494;11.768;2023-02-01T08:59:39;4.45;83.71
69543;SHT31;56762;49.494;11.768;2023-02-01T09:02:08;4.47;83.47
69543;SHT31;56762;49.494;11.768;2023-02-01T09:08:20;4.51;83.35
69543;SHT31;56762;49.494;11.768;2023-02-01T09:10:48;4.50;83.28
69543;SHT31;56762;49.494;11.768;2023-02-01T09:13:17;4.58;83.89
69543;SHT31;56762;49.494;11.768;2023-02-01T09:18:56;4.64;82.98
69543;SHT31;56762;49.494;11.768;2023-02-01T09:21:44;4.81;82.75
69543;SHT31;56762;49.494;11.768;2023-02-01T09:24:12;4.83;83.04
69543;SHT31;56762;49.494;11.768;2023-02-01T09:26:41;4.88;82.56
69543;SHT31;56762;49.494;11.768;2023-02-01T09:29:10;4.91;82.32
69543;SHT31;56762;49.494;11.768;2023-02-01T09:31:39;4.93;81.07
69543;SHT31;56762;49.494;11.768;2023-02-01T09:34:18;4.95;81.77
69543;SHT31;56762;49.494;11.768;2023-02-01T09:36:47;5.03;82.11
69543;SHT31;56762;49.494;11.768;2023-02-01T09:39:15;5.02;80.85
69543;SHT31;56762;49.494;11.768;2023-02-01T09:41:51;5.05;80.23
69543;SHT31;56762;49.494;11.768;2023-02-01T09:44:36;4.85;80.50
69543;SHT31;56762;49.494;11.768;2023-02-01T09:47:12;4.88;80.74
69543;SHT31;56762;49.494;11.768;2023-02-01T09:52:54;4.82;81.74
69543;SHT31;56762;49.494;11.768;2023-02-01T09:55:31;4.85;81.82
69543;SHT31;56762;49.494;11.768;2023-02-01T09:58:04;4.86;82.36
69543;SHT31;56762;49.494;11.768;2023-02-01T10:00:36;4.88;81.19
69543;SHT31;56762;49.494;11.768;2023-02-01T10:03:11;4.93;81.43
69543;SHT31;56762;49.494;11.768;2023-02-01T10:05:51;4.96;80.91
69543;SHT31;56762;49.494;11.768;2023-02-01T10:08:27;4.99;81.48
69543;SHT31;56762;49.494;11.768;2023-02-01T10:11:04;5.03;80.49
69543;SHT31;56762;49.494;11.768;2023-02-01T10:13:49;5.08;79.82
69543;SHT31;56762;49.494;11.768;2023-02-01T10:16:32;5.13;80.12
69543;SHT31;56762;49.494;11.768;2023-02-01T10:19:20;5.20;79.51
69543;SHT31;56762;49.494;11.768;2023-02-01T10:21:54;5.22;78.52
69543;SHT31;56762;49.494;11.768;2023-02-01T10:24:36;5.36;77.90
69543;SHT31;56762;49.494;11.768;2023-02-01T10:27:15;5.47;78.73
69543;SHT31;56762;49.494;11.768;2023-02-01T10:29:47;5.64;77.22
69543;SHT31;56762;49.494;11.768;2023-02-01T10:32:21;5.55;76.81
69543;SHT31;56762;49.494;11.768;2023-02-01T10:34:53;5.50;78.04
69543;SHT31;56762;49.494;11.768;2023-02-01T10:37:27;5.55;77.90
69543;SHT31;56762;49.494;11.768;2023-02-01T10:39:56;5.65;78.61
69543;SHT31;56762;49.494;11.768;2023-02-01T10:42:26;5.79;77.76
69543;SHT31;56762;49.494;11.768;2023-02-01T10:44:56;5.91;77.91
69543;SHT31;56762;49.494;11.768;2023-02-01T10:47:26;6.02;77.87
69543;SHT31;56762;49.494;11.768;2023-02-01T10:50:04;5.97;76.06
69543;SHT31;56762;49.494;11.768;2023-02-01T10:52:45;6.04;75.79
69543;SHT31;56762;49.494;11.768;2023-02-01T10:55:34;6.19;77.16
69543;SHT31;56762;49.494;11.768;2023-02-01T10:58:14;6.25;75.46
69543;SHT31;56762;49.494;11.768;2023-02-01T11:00:45;6.30;74.44
69543;SHT31;56762;49.494;11.768;2023-02-01T11:03:37;6.39;74.72
69543;SHT31;56762;49.494;11.768;2023-02-01T11:06:13;6.46;74.51
69543;SHT31;56762;49.494;11.768;2023-02-01T11:08:43;6.49;73.27
69543;SHT31;56762;49.494;11.768;2023-02-01T11:11:11;6.53;74.07
69543;SHT31;56762;49.494;11.768;2023-02-01T11:13:40;6.53;74.79
69543;SHT31;56762;49.494;11.768;2023-02-01T11:16:13;6.58;73.47
69543;SHT31;56762;49.494;11.768;2023-02-01T11:18:43;6.69;73.75
69543;SHT31;56762;49.494;11.768;2023-02-01T11:21:14;6.67;72.58
69543;SHT31;56762;49.494;11.768;2023-02-01T11:23:44;6.70;73.58
69543;SHT31;56762;49.494;11.768;2023-02-01T11:26:14;6.74;72.07
69543;SHT31;56762;49.494;11.768;2023-02-01T11:28:50;6.76;73.20
69543;SHT31;56762;49.494;11.768;2023-02-01T11:31:19;6.56;72.91
69543;SHT31;56762;49.494;11.768;2023-02-01T11:33:52;6.42;73.92
69543;SHT31;56762;49.494;11.768;2023-02-01T11:36:23;6.32;75.14
69543;SHT31;56762;49.494;11.768;2023-02-01T11:39:07;6.29;75.19
69543;SHT31;56762;49.494;11.768;2023-02-01T11:41:41;6.22;76.08
69543;SHT31;56762;49.494;11.768;2023-02-01T11:44:20;6.26;75.52
69543;SHT31;56762;49.494;11.768;2023-02-01T11:46:48;6.18;76.44
69543;SHT31;56762;49.494;11.768;2023-02-01T11:49:22;6.19;75.51
69543;SHT31;56762;49.494;11.768;2023-02-01T11:52:06;5.94;75.26
69543;SHT31;56762;49.494;11.768;2023-02-01T11:54:49;5.95;75.77
69543;SHT31;56762;49.494;11.768;2023-02-01T11:57:32;6.09;75.89
69543;SHT31;56762;49.494;11.768;2023-02-01T12:00:25;6.11;76.18
69543;SHT31;56762;49.494;11.768;2023-02-01T12:03:26;6.05;75.90
69543;SHT31;56762;49.494;11.768;2023-02-01T12:05:59;6.02;76.78
69543;SHT31;56762;49.494;11.768;2023-02-01T12:08:52;6.08;77.02
69543;SHT31;56762;49.494;11.768;2023-02-01T12:11:32;6.26;77.02
69543;SHT31;56762;49.494;11.768;2023-02-01T12:14:13;6.19;76.80
69543;SHT31;56762;49.494;11.768;2023-02-01T12:16:51;6.06;76.79
69543;SHT31;56762;49.494;11.768;2023-02-01T12:19:38;6.09;77.14
69543;SHT31;56762;49.494;11.768;2023-02-01T12:22:22;6.01;77.48
69543;SHT31;56762;49.494;11.768;2023-02-01T12:25:25;5.94;77.89
69543;SHT31;56762;49.494;11.768;2023-02-01T12:28:18;5.98;77.15
69543;SHT31;56762;49.494;11.768;2023-02-01T12:31:12;5.85;77.11
69543;SHT31;56762;49.494;11.768;2023-02-01T12:33:54;5.95;76.64
69543;SHT31;56762;49.494;11.768;2023-02-01T12:36:32;5.90;76.59
69543;SHT31;56762;49.494;11.768;2023-02-01T12:39:14;5.90;77.46
69543;SHT31;56762;49.494;11.768;2023-02-01T12:41:52;5.82;77.29
69543;SHT31;56762;49.494;11.768;2023-02-01T12:44:32;5.85;76.90
69543;SHT31;56762;49.494;11.768;2023-02-01T12:47:07;5.78;76.97
69543;SHT31;56762;49.494;11.768;2023-02-01T12:49:48;5.78;76.97
69543;SHT31;56762;49.494;11.768;2023-02-01T12:52:20;5.79;77.98
69543;SHT31;56762;49.494;11.768;2023-02-01T12:54:57;5.88;77.43
69543;SHT31;56762;49.494;11.768;2023-02-01T12:57:28;5.94;77.51
69543;SHT31;56762;49.494;11.768;2023-02-01T13:00:02;5.97;76.58
69543;SHT31;56762;49.494;11.768;2023-02-01T13:02:36;5.97;75.71
69543;SHT31;56762;49.494;11.768;2023-02-01T13:05:13;5.92;75.64
69543;SHT31;56762;49.494;11.768;2023-02-01T13:07:47;5.91;75.56
69543;SHT31;56762;49.494;11.768;2023-02-01T13:10:33;5.91;76.33
69543;SHT31;56762;49.494;11.768;2023-02-01T13:13:10;5.79;76.09
69543;SHT31;56762;49.494;11.768;2023-02-01T13:15:42;5.78;76.48
69543;SHT31;56762;49.494;11.768;2023-02-01T13:18:14;5.79;76.93
69543;SHT31;56762;49.494;11.768;2023-02-01T13:20:49;5.75;76.18
69543;SHT31;56762;49.494;11.768;2023-02-01T13:23:24;5.74;76.67
69543;SHT31;56762;49.494;11.768;2023-02-01T13:25:55;5.63;80.11
69543;SHT31;56762;49.494;11.768;2023-02-01T13:28:26;5.47;81.32
69543;SHT31;56762;49.494;11.768;2023-02-01T13:31:18;5.05;83.39
69543;SHT31;56762;49.494;11.768;2023-02-01T13:36:53;4.57;85.06
69543;SHT31;56762;49.494;11.768;2023-02-01T13:40:10;4.57;86.04
69543;SHT31;56762;49.494;11.768;2023-02-01T13:42:48;4.57;86.01
69543;SHT31;56762;49.494;11.768;2023-02-01T13:45:19;4.55;85.59
69543;SHT31;56762;49.494;11.768;2023-02-01T13:47:50;4.54;85.70
69543;SHT31;56762;49.494;11.768;2023-02-01T13:50:22;4.44;85.39
69543;SHT31;56762;49.494;11.768;2023-02-01T13:52:53;4.55;85.25
69543;SHT31;56762;49.494;11.768;2023-02-01T13:55:31;4.54;85.91
69543;SHT31;56762;49.494;11.768;2023-02-01T13:58:10;4.67;86.36
69543;SHT31;56762;49.494;11.768;2023-02-01T14:00:41;4.68;85.46
69543;SHT31;56762;49.494;11.768;2023-02-01T14:03:16;4.67;84.86
69543;SHT31;56762;49.494;11.768;2023-02-01T14:06:15;4.65;85.54
69543;SHT31;56762;49.494;11.768;2023-02-01T14:08:46;4.68;84.59
69543;SHT31;56762;49.494;11.768;2023-02-01T14:11:40;4.75;84.21
69543;SHT31;56762;49.494;11.768;2023-02-01T14:17:40;4.75;83.70
69543;SHT31;56762;49.494;11.768;2023-02-01T14:23:24;4.73;84.23
69543;SHT31;56762;49.494;11.768;2023-02-01T14:26:06;4.85;83.50
69543;SHT31;56762;49.494;11.768;2023-02-01T14:28:38;4.89;81.66
69543;SHT31;56762;49.494;11.768;2023-02-01T14:34:02;4.85;82.78
69543;SHT31;56762;49.494;11.768;2023-02-01T14:36:46;4.85;82.47
69543;SHT31;56762;49.494;11.768;2023-02-01T14:39:24;4.83;82.29
69543;SHT31;56762;49.494;11.768;2023-02-01T14:42:29;4.85;82.52
69543;SHT31;56762;49.494;11.768;2023-02-01T14:48:42;4.79;82.88
69543;SHT31;56762;49.494;11.768;2023-02-01T14:51:14;4.76;82.40
69543;SHT31;56762;49.494;11.768;2023-02-01T14:53:43;4.76;81.86
69543;SHT31;56762;49.494;11.768;2023-02-01T14:56:15;4.73;81.37
69543;SHT31;56762;49.494;11.768;2023-02-01T14:58:53;4.71;82.14
69543;SHT31;56762;49.494;11.768;2023-02-01T15:01:25;4.82;81.61
69543;SHT31;56762;49.494;11.768;2023-02-01T15:04:00;4.76;80.85
69543;SHT31;56762;49.494;11.768;2023-02-01T15:06:37;4.75;81.20
69543;SHT31;56762;49.494;11.768;2023-02-01T15:09:09;4.75;81.17
69543;SHT31;56762;49.494;11.768;2023-02-01T15:11:53;4.71;81.07
69543;SHT31;56762;49.494;11.768;2023-02-01T15:14:21;4.68;81.12
69543;SHT31;56762;49.494;11.768;2023-02-01T15:16:49;4.73;80.74
69543;SHT31;56762;49.494;11.768;2023-02-01T15:19:21;4.65;80.47
69543;SHT31;56762;49.494;11.768;2023-02-01T15:21:52;4.64;81.14
69543;SHT31;56762;49.494;11.768;2023-02-01T15:24:24;4.64;82.17
69543;SHT31;56762;49.494;11.768;2023-02-01T15:26:53;4.69;80.68
69543;SHT31;56762;49.494;11.768;2023-02-01T15:29:23;4.65;80.90
69543;SHT31;56762;49.494;11.768;2023-02-01T15:31:54;4.65;80.58
69543;SHT31;56762;49.494;11.768;2023-02-01T15:34:22;4.55;82.08
69543;SHT31;56762;49.494;11.768;2023-02-01T15:36:50;4.64;81.55
69543;SHT31;56762;49.494;11.768;2023-02-01T15:39:33;4.64;82.32
69543;SHT31;56762;49.494;11.768;2023-02-01T15:42:10;4.57;82.39
69543;SHT31;56762;49.494;11.768;2023-02-01T15:44:44;4.71;80.97
69543;SHT31;56762;49.494;11.768;2023-02-01T15:47:15;4.68;80.36
69543;SHT31;56762;49.494;11.768;2023-02-01T15:49:45;4.65;79.86
69543;SHT31;56762;49.494;11.768;2023-02-01T15:52:23;4.65;79.96
69543;SHT31;56762;49.494;11.768;2023-02-01T15:54:54;4.67;80.55
69543;SHT31;56762;49.494;11.768;2023-02-01T15:57:25;4.71;79.67
69543;SHT31;56762;49.494;11.768;2023-02-01T15:59:58;4.68;80.28
69543;SHT31;56762;49.494;11.768;2023-02-01T16:02:32;4.60;80.13
69543;SHT31;56762;49.494;11.768;2023-02-01T16:05:01;4.64;80.92
69543;SHT31;56762;49.494;11.768;2023-02-01T16:07:32;4.62;80.10
69543;SHT31;56762;49.494;11.768;2023-02-01T16:10:02;4.69;80.49
69543;SHT31;56762;49.494;11.768;2023-02-01T16:12:44;4.75;79.87
69543;SHT31;56762;49.494;11.768;2023-02-01T16:15:14;4.68;80.61
69543;SHT31;56762;49.494;11.768;2023-02-01T16:17:41;4.68;80.20
69543;SHT31;56762;49.494;11.768;2023-02-01T16:20:11;4.60;79.80
69543;SHT31;56762;49.494;11.768;2023-02-01T16:22:40;4.72;79.17
69543;SHT31;56762;49.494;11.768;2023-02-01T16:25:08;4.65;79.15
69543;SHT31;56762;49.494;11.768;2023-02-01T16:27:36;4.65;79.04
69543;SHT31;56762;49.494;11.768;2023-02-01T16:30:05;4.71;79.33
69543;SHT31;56762;49.494;11.768;2023-02-01T16:32:35;4.67;79.15
69543;SHT31;56762;49.494;11.768;2023-02-01T16:35:05;4.69;78.56
69543;SHT31;56762;49.494;11.768;2023-02-01T16:37:37;4.64;78.87
69543;SHT31;56762;49.494;11.768;2023-02-01T16:40:12;4.68;78.99
69543;SHT31;56762;49.494;11.768;2023-02-01T16:42:40;4.71;78.06